sensor_id;sensor_type;location;lat;lon;timestamp;temperature;humidity
19680;DHT22;9989;48.962;9.182;2022-11-12T00:00:16;8.50;99.90
19680;DHT22;9989;48.962;9.182;2022-11-12T00:02:42;8.50;99.90
19680;DHT22;9989;48.962;9.182;2022-11-12T00:05:08;8.50;99.90
19680;DHT22;9989;48.962;9.182;2022-11-12T00:07:33;8.40;99.90
19680;DHT22;9989;48.962;9.182;2022-11-12T00:09:59;8.40;99.90
19680;DHT22;9989;48.962;9.182;2022-11-12T00:12:24;8.40;99.90
19680;DHT22;9989;48.962;9.182;2022-11-12T00:14:50;8.40;99.90
19680;DHT22;9989;48.962;9.182;2022-11-12T00:17:15;8.40;99.90
19680;DHT22;9989;48.962;9.182;2022-11-12T00:19:41;8.30;99.90
19680;DHT22;9989;48.962;9.182;2022-11-12T00:22:07;8.20;99.90
19680;DHT22;9989;48.962;9.182;2022-11-12T00:24:32;8.10;99.90
19680;DHT22;9989;48.962;9.182;2022-11-12T00:26:58;8.10;99.90
19680;DHT22;9989;48.962;9.182;2022-11-12T00:29:23;8.10;99.90
19680;DHT22;9989;48.962;9.182;2022-11-12T00:31:49;8.00;99.90
19680;DHT22;9989;48.962;9.182;2022-11-12T00:34:14;8.00;99.90
19680;DHT22;9989;48.962;9.182;2022-11-12T00:36:40;8.00;99.90
19680;DHT22;9989;48.962;9.182;2022-11-12T00:39:05;8.00;99.90
19680;DHT22;9989;48.962;9.182;2022-11-12T00:41:31;7.90;99.90
19680;DHT22;9989;48.962;9.182;2022-11-12T00:43:57;7.90;99.90
19680;DHT22;9989;48.962;9.182;2022-11-12T00:46:22;7.90;99.90
19680;DHT22;9989;48.962;9.182;2022-11-12T00:48:48;7.90;99.90
19680;DHT22;9989;48.962;9.182;2022-11-12T00:51:13;7.80;99.90
19680;DHT22;9989;48.962;9.182;2022-11-12T00:53:39;7.80;99.90
19680;DHT22;9989;48.962;9.182;2022-11-12T00:56:05;7.80;99.90
19680;DHT22;9989;48.962;9.182;2022-11-12T00:58:33;7.70;99.90
19680;DHT22;9989;48.962;9.182;2022-11-12T01:01:10;7.70;99.90
19680;DHT22;9989;48.962;9.182;2022-11-12T01:03:37;7.70;99.90
19680;DHT22;9989;48.962;9.182;2022-11-12T01:06:11;7.60;99.90
19680;DHT22;9989;48.962;9.182;2022-11-12T01:08:38;7.60;99.90
19680;DHT22;9989;48.962;9.182;2022-11-12T01:11:09;7.40;99.90
19680;DHT22;9989;48.962;9.182;2022-11-12T01:13:37;7.40;99.90
19680;DHT22;9989;48.962;9.182;2022-11-12T01:16:07;7.30;99.90
19680;DHT22;9989;48.962;9.182;2022-11-12T01:18:33;7.20;99.90
19680;DHT22;9989;48.962;9.182;2022-11-12T01:21:00;7.20;99.90
19680;DHT22;9989;48.962;9.182;2022-11-12T01:23:26;7.10;99.90
19680;DHT22;9989;48.962;9.182;2022-11-12T01:25:52;7.10;99.90
19680;DHT22;9989;48.962;9.182;2022-11-12T01:28:18;7.10;99.90
19680;DHT22;9989;48.962;9.182;2022-11-12T01:30:44;7.10;99.90
19680;DHT22;9989;48.962;9.182;2022-11-12T01:33:09;7.20;99.90
19680;DHT22;9989;48.962;9.182;2022-11-12T01:35:35;7.20;99.90
19680;DHT22;9989;48.962;9.182;2022-11-12T01:38:00;7.20;99.90
19680;DHT22;9989;48.962;9.182;2022-11-12T01:40:26;7.20;99.90
19680;DHT22;9989;48.962;9.182;2022-11-12T01:42:52;7.20;99.90
19680;DHT22;9989;48.962;9.182;2022-11-12T01:45:19;7.10;99.90
19680;DHT22;9989;48.962;9.182;2022-11-12T01:47:47;7.10;99.90
19680;DHT22;9989;48.962;9.182;2022-11-12T01:50:26;7.10;99.90
19680;DHT22;9989;48.962;9.182;2022-11-12T01:53:00;7.00;99.90
19680;DHT22;9989;48.962;9.182;2022-11-12T01:55:29;7.00;99.90
19680;DHT22;9989;48.962;9.182;2022-11-12T01:58:02;7.00;99.90
19680;DHT22;9989;48.962;9.182;2022-11-12T02:00:29;6.90;99.90
19680;DHT22;9989;48.962;9.182;2022-11-12T02:02:58;6.90;99.90
19680;DHT22;9989;48.962;9.182;2022-11-12T02:05:24;6.80;99.90
19680;DHT22;9989;48.962;9.182;2022-11-12T02:07:51;6.80;99.90
19680;DHT22;9989;48.962;9.182;2022-11-12T02:10:20;6.80;99.90
19680;DHT22;9989;48.962;9.182;2022-11-12T02:12:47;6.80;99.90
19680;DHT22;9989;48.962;9.182;2022-11-12T02:15:33;6.80;99.90
19680;DHT22;9989;48.962;9.182;2022-11-12T02:17:59;6.80;99.90
19680;DHT22;9989;48.962;9.182;2022-11-12T02:20:24;6.80;99.90
19680;DHT22;9989;48.962;9.182;2022-11-12T02:22:50;6.80;99.90
19680;DHT22;9989;48.962;9.182;2022-11-12T02:25:18;6.80;99.90
19680;DHT22;9989;48.962;9.182;2022-11-12T02:27:45;6.80;99.90
19680;DHT22;9989;48.962;9.182;2022-11-12T02:30:22;6.80;99.90
19680;DHT22;9989;48.962;9.182;2022-11-12T02:32:55;6.90;99.90
19680;DHT22;9989;48.962;9.182;2022-11-12T02:35:20;6.90;99.90
19680;DHT22;9989;48.962;9.182;2022-11-12T02:37:46;6.80;99.90
19680;DHT22;9989;48.962;9.182;2022-11-12T02:40:11;6.90;99.90
19680;DHT22;9989;48.962;9.182;2022-11-12T02:42:37;6.80;99.90
19680;DHT22;9989;48.962;9.182;2022-11-12T02:45:03;6.80;99.90
19680;DHT22;9989;48.962;9.182;2022-11-12T02:47:29;6.80;99.90
19680;DHT22;9989;48.962;9.182;2022-11-12T02:49:54;6.80;99.90
19680;DHT22;9989;48.962;9.182;2022-11-12T02:52:20;6.70;99.90
19680;DHT22;9989;48.962;9.182;2022-11-12T02:54:45;6.70;99.90
19680;DHT22;9989;48.962;9.182;2022-11-12T02:57:11;6.70;99.90
19680;DHT22;9989;48.962;9.182;2022-11-12T02:59:36;6.70;99.90
19680;DHT22;9989;48.962;9.182;2022-11-12T03:02:02;6.70;99.90
19680;DHT22;9989;48.962;9.182;2022-11-12T03:04:28;6.70;99.90
19680;DHT22;9989;48.962;9.182;2022-11-12T03:06:53;6.70;99.90
19680;DHT22;9989;48.962;9.182;2022-11-12T03:09:19;6.70;99.90
19680;DHT22;9989;48.962;9.182;2022-11-12T03:11:44;6.70;99.90
19680;DHT22;9989;48.962;9.182;2022-11-12T03:14:10;6.70;99.90
19680;DHT22;9989;48.962;9.182;2022-11-12T03:16:35;6.70;99.90
19680;DHT22;9989;48.962;9.182;2022-11-12T03:19:01;6.60;99.90
19680;DHT22;9989;48.962;9.182;2022-11-12T03:21:26;6.60;99.90
19680;DHT22;9989;48.962;9.182;2022-11-12T03:23:52;6.60;99.90
19680;DHT22;9989;48.962;9.182;2022-11-12T03:26:17;6.60;99.90
19680;DHT22;9989;48.962;9.182;2022-11-12T03:28:46;6.60;99.90
19680;DHT22;9989;48.962;9.182;2022-11-12T03:31:12;6.60;99.90
19680;DHT22;9989;48.962;9.182;2022-11-12T03:33:37;6.60;99.90
19680;DHT22;9989;48.962;9.182;2022-11-12T03:36:03;6.60;99.90
19680;DHT22;9989;48.962;9.182;2022-11-12T03:38:29;6.60;99.90
19680;DHT22;9989;48.962;9.182;2022-11-12T03:40:55;6.60;99.90
19680;DHT22;9989;48.962;9.182;2022-11-12T03:43:20;6.60;99.90
19680;DHT22;9989;48.962;9.182;2022-11-12T03:45:46;6.60;99.90
19680;DHT22;9989;48.962;9.182;2022-11-12T03:48:12;6.50;99.90
19680;DHT22;9989;48.962;9.182;2022-11-12T03:50:37;6.50;99.90
19680;DHT22;9989;48.962;9.182;2022-11-12T03:53:03;6.40;99.90
19680;DHT22;9989;48.962;9.182;2022-11-12T03:55:29;6.40;99.90
19680;DHT22;9989;48.962;9.182;2022-11-12T03:57:55;6.40;99.90
19680;DHT22;9989;48.962;9.182;2022-11-12T04:00:22;6.40;99.90
19680;DHT22;9989;48.962;9.182;2022-11-12T04:02:48;6.40;99.90
19680;DHT22;9989;48.962;9.182;2022-11-12T04:05:14;6.40;99.90
19680;DHT22;9989;48.962;9.182;2022-11-12T04:08:16;6.40;99.90
19680;DHT22;9989;48.962;9.182;2022-11-12T04:11:07;6.40;99.90
19680;DHT22;9989;48.962;9.182;2022-11-12T04:13:34;6.50;99.90
19680;DHT22;9989;48.962;9.182;2022-11-12T04:16:13;6.50;99.90
19680;DHT22;9989;48.962;9.182;2022-11-12T04:19:11;6.50;99.90
19680;DHT22;9989;48.962;9.182;2022-11-12T04:22:04;6.40;99.90
19680;DHT22;9989;48.962;9.182;2022-11-12T04:24:32;6.40;99.90
19680;DHT22;9989;48.962;9.182;2022-11-12T04:27:35;6.40;99.90
19680;DHT22;9989;48.962;9.182;2022-11-12T04:30:01;6.50;99.90
19680;DHT22;9989;48.962;9.182;2022-11-12T04:32:51;6.50;99.90
19680;DHT22;9989;48.962;9.182;2022-11-12T04:35:20;6.50;99.90
19680;DHT22;9989;48.962;9.182;2022-11-12T04:37:46;6.50;99.90
19680;DHT22;9989;48.962;9.182;2022-11-12T04:40:17;6.50;99.90
19680;DHT22;9989;48.962;9.182;2022-11-12T04:43:03;6.60;99.90
19680;DHT22;9989;48.962;9.182;2022-11-12T04:45:50;6.60;99.90
19680;DHT22;9989;48.962;9.182;2022-11-12T04:48:16;6.60;99.90
19680;DHT22;9989;48.962;9.182;2022-11-12T04:50:44;6.60;99.90
19680;DHT22;9989;48.962;9.182;2022-11-12T04:53:11;6.60;99.90
19680;DHT22;9989;48.962;9.182;2022-11-12T04:55:36;6.70;99.90
19680;DHT22;9989;48.962;9.182;2022-11-12T04:58:02;6.70;99.90
19680;DHT22;9989;48.962;9.182;2022-11-12T05:00:28;6.70;99.90
19680;DHT22;9989;48.962;9.182;2022-11-12T05:02:53;6.80;99.90
19680;DHT22;9989;48.962;9.182;2022-11-12T05:05:19;6.80;99.90
19680;DHT22;9989;48.962;9.182;2022-11-12T05:07:45;6.90;99.90
19680;DHT22;9989;48.962;9.182;2022-11-12T05:10:10;6.90;99.90
19680;DHT22;9989;48.962;9.182;2022-11-12T05:12:36;7.00;99.90
19680;DHT22;9989;48.962;9.182;2022-11-12T05:15:02;7.00;99.90
19680;DHT22;9989;48.962;9.182;2022-11-12T05:17:28;7.00;99.90
19680;DHT22;9989;48.962;9.182;2022-11-12T05:19:54;7.00;99.90
19680;DHT22;9989;48.962;9.182;2022-11-12T05:22:19;7.00;99.90
19680;DHT22;9989;48.962;9.182;2022-11-12T05:24:45;7.00;99.90
19680;DHT22;9989;48.962;9.182;2022-11-12T05:27:17;7.00;99.90
19680;DHT22;9989;48.962;9.182;2022-11-12T05:29:43;7.00;99.90
19680;DHT22;9989;48.962;9.182;2022-11-12T05:32:11;7.00;99.90
19680;DHT22;9989;48.962;9.182;2022-11-12T05:34:38;6.90;99.90
19680;DHT22;9989;48.962;9.182;2022-11-12T05:37:05;6.90;99.90
19680;DHT22;9989;48.962;9.182;2022-11-12T05:39:31;6.90;99.90
19680;DHT22;9989;48.962;9.182;2022-11-12T05:41:56;6.90;99.90
19680;DHT22;9989;48.962;9.182;2022-11-12T05:44:22;6.90;99.90
19680;DHT22;9989;48.962;9.182;2022-11-12T05:46:48;6.80;99.90
19680;DHT22;9989;48.962;9.182;2022-11-12T05:49:15;6.80;99.90
19680;DHT22;9989;48.962;9.182;2022-11-12T05:51:40;6.80;99.90
19680;DHT22;9989;48.962;9.182;2022-11-12T05:54:06;6.80;99.90
19680;DHT22;9989;48.962;9.182;2022-11-12T05:56:32;6.70;99.90
19680;DHT22;9989;48.962;9.182;2022-11-12T05:59:00;6.70;99.90
19680;DHT22;9989;48.962;9.182;2022-11-12T06:01:25;6.60;99.90
19680;DHT22;9989;48.962;9.182;2022-11-12T06:03:51;6.60;99.90
19680;DHT22;9989;48.962;9.182;2022-11-12T06:06:17;6.60;99.90
19680;DHT22;9989;48.962;9.182;2022-11-12T06:08:42;6.60;99.90
19680;DHT22;9989;48.962;9.182;2022-11-12T06:11:08;6.60;99.90
19680;DHT22;9989;48.962;9.182;2022-11-12T06:13:34;6.60;99.90
19680;DHT22;9989;48.962;9.182;2022-11-12T06:15:59;6.60;99.90
19680;DHT22;9989;48.962;9.182;2022-11-12T06:18:25;6.60;99.90
19680;DHT22;9989;48.962;9.182;2022-11-12T06:20:50;6.60;99.90
19680;DHT22;9989;48.962;9.182;2022-11-12T06:23:35;6.60;99.90
19680;DHT22;9989;48.962;9.182;2022-11-12T06:26:02;6.50;99.90
19680;DHT22;9989;48.962;9.182;2022-11-12T06:28:28;6.50;99.90
19680;DHT22;9989;48.962;9.182;2022-11-12T06:30:53;6.50;99.90
19680;DHT22;9989;48.962;9.182;2022-11-12T06:33:20;6.50;99.90
19680;DHT22;9989;48.962;9.182;2022-11-12T06:35:45;6.50;99.90
19680;DHT22;9989;48.962;9.182;2022-11-12T06:38:11;6.40;99.90
19680;DHT22;9989;48.962;9.182;2022-11-12T06:40:36;6.40;99.90
19680;DHT22;9989;48.962;9.182;2022-11-12T06:43:02;6.40;99.90
19680;DHT22;9989;48.962;9.182;2022-11-12T06:45:28;6.30;99.90
19680;DHT22;9989;48.962;9.182;2022-11-12T06:47:57;6.30;99.90
19680;DHT22;9989;48.962;9.182;2022-11-12T06:50:23;6.30;99.90
19680;DHT22;9989;48.962;9.182;2022-11-12T06:52:48;6.40;99.90
19680;DHT22;9989;48.962;9.182;2022-11-12T06:55:14;6.40;99.90
19680;DHT22;9989;48.962;9.182;2022-11-12T06:57:39;6.40;99.90
19680;DHT22;9989;48.962;9.182;2022-11-12T07:00:06;6.50;99.90
19680;DHT22;9989;48.962;9.182;2022-11-12T07:02:31;6.60;99.90
19680;DHT22;9989;48.962;9.182;2022-11-12T07:04:57;6.60;99.90
19680;DHT22;9989;48.962;9.182;2022-11-12T07:07:22;6.70;99.90
19680;DHT22;9989;48.962;9.182;2022-11-12T07:09:48;6.70;99.90
19680;DHT22;9989;48.962;9.182;2022-11-12T07:12:13;7.00;99.90
19680;DHT22;9989;48.962;9.182;2022-11-12T07:14:39;7.30;99.90
19680;DHT22;9989;48.962;9.182;2022-11-12T07:17:05;7.90;99.90
19680;DHT22;9989;48.962;9.182;2022-11-12T07:19:30;8.60;99.90
19680;DHT22;9989;48.962;9.182;2022-11-12T07:21:56;9.60;99.90
19680;DHT22;9989;48.962;9.182;2022-11-12T07:24:21;10.60;99.90
19680;DHT22;9989;48.962;9.182;2022-11-12T07:26:47;11.70;99.90
19680;DHT22;9989;48.962;9.182;2022-11-12T07:29:12;12.80;99.90
19680;DHT22;9989;48.962;9.182;2022-11-12T07:31:38;13.90;99.90
19680;DHT22;9989;48.962;9.182;2022-11-12T07:34:04;14.80;99.90
19680;DHT22;9989;48.962;9.182;2022-11-12T07:36:29;15.80;99.90
19680;DHT22;9989;48.962;9.182;2022-11-12T07:38:55;16.70;99.90
19680;DHT22;9989;48.962;9.182;2022-11-12T07:41:22;17.70;99.90
19680;DHT22;9989;48.962;9.182;2022-11-12T07:43:51;18.70;98.10
19680;DHT22;9989;48.962;9.182;2022-11-12T07:46:22;19.50;95.20
19680;DHT22;9989;48.962;9.182;2022-11-12T07:48:49;20.00;90.50
19680;DHT22;9989;48.962;9.182;2022-11-12T07:51:26;19.80;84.30
19680;DHT22;9989;48.962;9.182;2022-11-12T07:53:53;19.10;82.80
19680;DHT22;9989;48.962;9.182;2022-11-12T07:56:22;18.30;84.50
19680;DHT22;9989;48.962;9.182;2022-11-12T07:58:48;17.50;86.40
19680;DHT22;9989;48.962;9.182;2022-11-12T08:03:43;17.40;90.50
19680;DHT22;9989;48.962;9.182;2022-11-12T08:06:08;17.80;89.40
19680;DHT22;9989;48.962;9.182;2022-11-12T08:08:34;18.00;88.40
19680;DHT22;9989;48.962;9.182;2022-11-12T08:10:59;18.00;87.00
19680;DHT22;9989;48.962;9.182;2022-11-12T08:13:25;18.30;87.40
19680;DHT22;9989;48.962;9.182;2022-11-12T08:15:51;19.10;86.20
19680;DHT22;9989;48.962;9.182;2022-11-12T08:18:17;20.20;83.40
19680;DHT22;9989;48.962;9.182;2022-11-12T08:20:42;21.20;77.90
19680;DHT22;9989;48.962;9.182;2022-11-12T08:23:09;22.20;74.60
19680;DHT22;9989;48.962;9.182;2022-11-12T08:25:35;23.00;70.60
19680;DHT22;9989;48.962;9.182;2022-11-12T08:28:01;23.70;67.50
19680;DHT22;9989;48.962;9.182;2022-11-12T08:30:27;24.20;64.30
19680;DHT22;9989;48.962;9.182;2022-11-12T08:32:58;24.60;62.00
19680;DHT22;9989;48.962;9.182;2022-11-12T08:35:25;25.10;59.90
19680;DHT22;9989;48.962;9.182;2022-11-12T08:37:55;25.80;58.60
19680;DHT22;9989;48.962;9.182;2022-11-12T08:40:21;26.30;56.70
19680;DHT22;9989;48.962;9.182;2022-11-12T08:42:47;27.00;55.10
19680;DHT22;9989;48.962;9.182;2022-11-12T08:45:12;27.60;53.70
19680;DHT22;9989;48.962;9.182;2022-11-12T08:47:38;28.00;51.70
19680;DHT22;9989;48.962;9.182;2022-11-12T08:50:03;28.20;50.90
19680;DHT22;9989;48.962;9.182;2022-11-12T08:52:29;28.30;49.90
19680;DHT22;9989;48.962;9.182;2022-11-12T08:54:55;28.40;49.60
19680;DHT22;9989;48.962;9.182;2022-11-12T08:57:20;28.40;48.80
19680;DHT22;9989;48.962;9.182;2022-11-12T08:59:46;28.20;48.80
19680;DHT22;9989;48.962;9.182;2022-11-12T09:02:12;28.10;49.30
19680;DHT22;9989;48.962;9.182;2022-11-12T09:04:38;28.10;49.00
19680;DHT22;9989;48.962;9.182;2022-11-12T09:07:03;28.20;49.20
19680;DHT22;9989;48.962;9.182;2022-11-12T09:09:29;28.20;49.00
19680;DHT22;9989;48.962;9.182;2022-11-12T09:11:54;28.10;48.70
19680;DHT22;9989;48.962;9.182;2022-11-12T09:14:20;28.10;48.50
19680;DHT22;9989;48.962;9.182;2022-11-12T09:16:48;28.10;49.00
19680;DHT22;9989;48.962;9.182;2022-11-12T09:19:14;28.00;48.60
19680;DHT22;9989;48.962;9.182;2022-11-12T09:21:39;28.10;48.70
19680;DHT22;9989;48.962;9.182;2022-11-12T09:24:05;28.30;48.70
19680;DHT22;9989;48.962;9.182;2022-11-12T09:26:31;28.40;48.20
19680;DHT22;9989;48.962;9.182;2022-11-12T09:28:56;28.60;47.90
19680;DHT22;9989;48.962;9.182;2022-11-12T09:31:22;28.60;47.70
19680;DHT22;9989;48.962;9.182;2022-11-12T09:33:50;28.40;47.70
19680;DHT22;9989;48.962;9.182;2022-11-12T09:36:15;27.70;47.40
19680;DHT22;9989;48.962;9.182;2022-11-12T09:38:42;26.60;48.70
19680;DHT22;9989;48.962;9.182;2022-11-12T09:41:38;25.40;50.40
19680;DHT22;9989;48.962;9.182;2022-11-12T09:44:16;24.00;53.20
19680;DHT22;9989;48.962;9.182;2022-11-12T09:47:34;23.30;55.50
19680;DHT22;9989;48.962;9.182;2022-11-12T09:49:47;22.80;56.90
19680;DHT22;9989;48.962;9.182;2022-11-12T09:52:24;22.70;58.00
19680;DHT22;9989;48.962;9.182;2022-11-12T09:55:17;22.80;58.50
19680;DHT22;9989;48.962;9.182;2022-11-12T09:57:45;22.90;58.40
19680;DHT22;9989;48.962;9.182;2022-11-12T10:00:18;23.00;58.20
19680;DHT22;9989;48.962;9.182;2022-11-12T10:11:01;23.00;58.40
19680;DHT22;9989;48.962;9.182;2022-11-12T10:13:35;23.10;58.60
19680;DHT22;9989;48.962;9.182;2022-11-12T10:24:24;24.00;57.40
19680;DHT22;9989;48.962;9.182;2022-11-12T10:26:52;24.20;56.80
19680;DHT22;9989;48.962;9.182;2022-11-12T10:32:18;24.00;56.60
19680;DHT22;9989;48.962;9.182;2022-11-12T10:34:43;23.80;56.80
19680;DHT22;9989;48.962;9.182;2022-11-12T10:39:44;23.80;57.20
19680;DHT22;9989;48.962;9.182;2022-11-12T10:42:19;24.00;57.00
19680;DHT22;9989;48.962;9.182;2022-11-12T10:44:45;24.40;56.90
19680;DHT22;9989;48.962;9.182;2022-11-12T10:52:26;26.30;53.50
19680;DHT22;9989;48.962;9.182;2022-11-12T10:55:26;26.50;52.60
19680;DHT22;9989;48.962;9.182;2022-11-12T11:00:27;26.30;51.90
19680;DHT22;9989;48.962;9.182;2022-11-12T11:02:54;26.30;52.30
19680;DHT22;9989;48.962;9.182;2022-11-12T11:05:35;26.50;52.20
19680;DHT22;9989;48.962;9.182;2022-11-12T11:08:03;27.20;51.40
19680;DHT22;9989;48.962;9.182;2022-11-12T11:10:34;28.10;51.50
19680;DHT22;9989;48.962;9.182;2022-11-12T11:18:22;30.00;47.30
19680;DHT22;9989;48.962;9.182;2022-11-12T11:20:55;30.30;46.60
19680;DHT22;9989;48.962;9.182;2022-11-12T11:23:29;30.40;46.00
19680;DHT22;9989;48.962;9.182;2022-11-12T11:26:02;29.90;45.50
19680;DHT22;9989;48.962;9.182;2022-11-12T11:28:52;29.40;46.40
19680;DHT22;9989;48.962;9.182;2022-11-12T11:37:28;29.00;47.50
19680;DHT22;9989;48.962;9.182;2022-11-12T11:48:16;28.80;47.20
19680;DHT22;9989;48.962;9.182;2022-11-12T11:53:26;28.60;47.30
19680;DHT22;9989;48.962;9.182;2022-11-12T11:55:57;28.60;47.40
19680;DHT22;9989;48.962;9.182;2022-11-12T12:09:50;29.20;47.70
19680;DHT22;9989;48.962;9.182;2022-11-12T12:12:25;29.30;47.80
19680;DHT22;9989;48.962;9.182;2022-11-12T12:18:27;28.90;48.70
19680;DHT22;9989;48.962;9.182;2022-11-12T12:23:51;28.30;50.00
19680;DHT22;9989;48.962;9.182;2022-11-12T12:29:15;27.90;49.90
19680;DHT22;9989;48.962;9.182;2022-11-12T12:31:50;27.60;50.20
19680;DHT22;9989;48.962;9.182;2022-11-12T12:34:25;27.50;51.10
19680;DHT22;9989;48.962;9.182;2022-11-12T12:36:58;27.30;51.80
19680;DHT22;9989;48.962;9.182;2022-11-12T12:39:35;27.30;52.20
19680;DHT22;9989;48.962;9.182;2022-11-12T12:42:25;27.10;52.10
19680;DHT22;9989;48.962;9.182;2022-11-12T12:45:41;26.80;52.50
19680;DHT22;9989;48.962;9.182;2022-11-12T12:47:47;26.50;53.00
19680;DHT22;9989;48.962;9.182;2022-11-12T12:50:15;26.10;53.50
19680;DHT22;9989;48.962;9.182;2022-11-12T12:53:03;25.70;54.50
19680;DHT22;9989;48.962;9.182;2022-11-12T12:58:03;25.20;55.40
19680;DHT22;9989;48.962;9.182;2022-11-12T13:00:39;24.90;56.40
19680;DHT22;9989;48.962;9.182;2022-11-12T13:03:05;24.70;57.70
19680;DHT22;9989;48.962;9.182;2022-11-12T13:05:36;24.40;57.50
19680;DHT22;9989;48.962;9.182;2022-11-12T13:08:10;24.00;58.00
19680;DHT22;9989;48.962;9.182;2022-11-12T13:15:48;23.00;60.90
19680;DHT22;9989;48.962;9.182;2022-11-12T13:21:19;22.60;62.70
19680;DHT22;9989;48.962;9.182;2022-11-12T13:23:48;22.50;63.30
19680;DHT22;9989;48.962;9.182;2022-11-12T13:26:46;22.60;63.60
19680;DHT22;9989;48.962;9.182;2022-11-12T13:32:29;22.70;62.60
19680;DHT22;9989;48.962;9.182;2022-11-12T13:35:14;22.60;62.60
19680;DHT22;9989;48.962;9.182;2022-11-12T13:40:50;22.40;63.50
19680;DHT22;9989;48.962;9.182;2022-11-12T13:43:20;22.30;64.50
19680;DHT22;9989;48.962;9.182;2022-11-12T13:53:56;21.70;65.20
19680;DHT22;9989;48.962;9.182;2022-11-12T13:56:33;21.30;65.90
19680;DHT22;9989;48.962;9.182;2022-11-12T14:01:41;20.70;68.20
19680;DHT22;9989;48.962;9.182;2022-11-12T14:04:13;20.40;69.20
19680;DHT22;9989;48.962;9.182;2022-11-12T14:06:46;20.10;70.00
19680;DHT22;9989;48.962;9.182;2022-11-12T14:14:57;19.00;73.50
19680;DHT22;9989;48.962;9.182;2022-11-12T14:18:43;18.60;74.60
19680;DHT22;9989;48.962;9.182;2022-11-12T14:20:48;18.20;76.40
19680;DHT22;9989;48.962;9.182;2022-11-12T14:23:16;17.90;77.80
19680;DHT22;9989;48.962;9.182;2022-11-12T14:25:51;17.70;79.00
19680;DHT22;9989;48.962;9.182;2022-11-12T14:30:51;17.10;81.30
19680;DHT22;9989;48.962;9.182;2022-11-12T14:33:18;16.90;82.40
19680;DHT22;9989;48.962;9.182;2022-11-12T14:35:46;16.70;83.40
19680;DHT22;9989;48.962;9.182;2022-11-12T14:38:37;16.50;84.50
19680;DHT22;9989;48.962;9.182;2022-11-12T14:41:21;16.30;85.40
19680;DHT22;9989;48.962;9.182;2022-11-12T14:43:53;16.10;86.70
19680;DHT22;9989;48.962;9.182;2022-11-12T14:46:44;15.90;87.80
19680;DHT22;9989;48.962;9.182;2022-11-12T14:52:07;15.50;90.00
19680;DHT22;9989;48.962;9.182;2022-11-12T14:54:37;15.30;90.50
19680;DHT22;9989;48.962;9.182;2022-11-12T14:57:04;15.10;91.00
19680;DHT22;9989;48.962;9.182;2022-11-12T14:59:31;14.90;91.70
19680;DHT22;9989;48.962;9.182;2022-11-12T15:02:16;14.80;92.30
19680;DHT22;9989;48.962;9.182;2022-11-12T15:04:50;14.60;93.00
19680;DHT22;9989;48.962;9.182;2022-11-12T15:07:34;14.40;93.80
19680;DHT22;9989;48.962;9.182;2022-11-12T15:13:09;14.10;95.70
19680;DHT22;9989;48.962;9.182;2022-11-12T15:16:00;13.90;96.90
19680;DHT22;9989;48.962;9.182;2022-11-12T15:18:28;13.80;98.10
19680;DHT22;9989;48.962;9.182;2022-11-12T15:23:52;13.50;99.90
19680;DHT22;9989;48.962;9.182;2022-11-12T15:26:36;13.40;99.90
19680;DHT22;9989;48.962;9.182;2022-11-12T15:36:49;13.00;99.90
19680;DHT22;9989;48.962;9.182;2022-11-12T15:39:15;12.90;99.90
19680;DHT22;9989;48.962;9.182;2022-11-12T15:41:41;12.80;99.90
19680;DHT22;9989;48.962;9.182;2022-11-12T15:44:08;12.60;99.90
19680;DHT22;9989;48.962;9.182;2022-11-12T15:46:36;12.50;99.90
19680;DHT22;9989;48.962;9.182;2022-11-12T15:49:01;12.40;99.90
19680;DHT22;9989;48.962;9.182;2022-11-12T15:51:27;12.30;99.90
19680;DHT22;9989;48.962;9.182;2022-11-12T15:53:52;12.30;99.90
19680;DHT22;9989;48.962;9.182;2022-11-12T15:56:18;12.20;99.90
19680;DHT22;9989;48.962;9.182;2022-11-12T15:58:46;12.10;99.90
19680;DHT22;9989;48.962;9.182;2022-11-12T16:01:12;12.00;99.90
19680;DHT22;9989;48.962;9.182;2022-11-12T16:03:38;12.00;99.90
19680;DHT22;9989;48.962;9.182;2022-11-12T16:06:04;11.90;99.90
19680;DHT22;9989;48.962;9.182;2022-11-12T16:08:29;11.80;99.90
19680;DHT22;9989;48.962;9.182;2022-11-12T16:10:55;11.80;99.90
19680;DHT22;9989;48.962;9.182;2022-11-12T16:13:31;11.70;99.90
19680;DHT22;9989;48.962;9.182;2022-11-12T16:16:04;11.60;99.90
19680;DHT22;9989;48.962;9.182;2022-11-12T16:18:31;11.60;99.90
19680;DHT22;9989;48.962;9.182;2022-11-12T16:20:56;11.60;99.90
19680;DHT22;9989;48.962;9.182;2022-11-12T16:23:22;11.60;99.90
19680;DHT22;9989;48.962;9.182;2022-11-12T16:25:47;11.60;99.90
19680;DHT22;9989;48.962;9.182;2022-11-12T16:28:15;11.50;99.90
19680;DHT22;9989;48.962;9.182;2022-11-12T16:30:42;11.50;99.90
19680;DHT22;9989;48.962;9.182;2022-11-12T16:33:10;11.40;99.90
19680;DHT22;9989;48.962;9.182;2022-11-12T16:35:36;11.40;99.90
19680;DHT22;9989;48.962;9.182;2022-11-12T16:38:02;11.30;99.90
19680;DHT22;9989;48.962;9.182;2022-11-12T16:40:29;11.30;99.90
19680;DHT22;9989;48.962;9.182;2022-11-12T16:42:55;11.30;99.90
19680;DHT22;9989;48.962;9.182;2022-11-12T16:45:23;11.20;99.90
19680;DHT22;9989;48.962;9.182;2022-11-12T16:47:52;11.20;99.90
19680;DHT22;9989;48.962;9.182;2022-11-12T16:50:25;11.10;99.90
19680;DHT22;9989;48.962;9.182;2022-11-12T16:52:51;11.00;99.90
19680;DHT22;9989;48.962;9.182;2022-11-12T16:55:18;11.00;99.90
19680;DHT22;9989;48.962;9.182;2022-11-12T16:57:44;11.00;99.90
19680;DHT22;9989;48.962;9.182;2022-11-12T17:00:11;11.00;99.90
19680;DHT22;9989;48.962;9.182;2022-11-12T17:02:37;10.90;99.90
19680;DHT22;9989;48.962;9.182;2022-11-12T17:05:11;10.90;99.90
19680;DHT22;9989;48.962;9.182;2022-11-12T17:07:37;10.90;99.90
19680;DHT22;9989;48.962;9.182;2022-11-12T17:10:03;10.80;99.90
19680;DHT22;9989;48.962;9.182;2022-11-12T17:12:29;10.80;99.90
19680;DHT22;9989;48.962;9.182;2022-11-12T17:14:55;10.80;99.90
19680;DHT22;9989;48.962;9.182;2022-11-12T17:17:20;10.80;99.90
19680;DHT22;9989;48.962;9.182;2022-11-12T17:19:46;10.70;99.90
19680;DHT22;9989;48.962;9.182;2022-11-12T17:22:11;10.60;99.90
19680;DHT22;9989;48.962;9.182;2022-11-12T17:24:37;10.60;99.90
19680;DHT22;9989;48.962;9.182;2022-11-12T17:27:02;10.60;99.90
19680;DHT22;9989;48.962;9.182;2022-11-12T17:29:28;10.60;99.90
19680;DHT22;9989;48.962;9.182;2022-11-12T17:31:54;10.50;99.90
19680;DHT22;9989;48.962;9.182;2022-11-12T17:34:19;10.40;99.90
19680;DHT22;9989;48.962;9.182;2022-11-12T17:36:45;10.30;99.90
19680;DHT22;9989;48.962;9.182;2022-11-12T17:39:11;10.30;99.90
19680;DHT22;9989;48.962;9.182;2022-11-12T17:41:37;10.20;99.90
19680;DHT22;9989;48.962;9.182;2022-11-12T17:44:04;10.20;99.90
19680;DHT22;9989;48.962;9.182;2022-11-12T17:46:29;10.10;99.90
19680;DHT22;9989;48.962;9.182;2022-11-12T17:48:55;10.10;99.90
19680;DHT22;9989;48.962;9.182;2022-11-12T17:51:24;10.00;99.90
19680;DHT22;9989;48.962;9.182;2022-11-12T17:53:50;9.90;99.90
19680;DHT22;9989;48.962;9.182;2022-11-12T17:56:18;9.90;99.90
19680;DHT22;9989;48.962;9.182;2022-11-12T17:58:44;9.90;99.90
19680;DHT22;9989;48.962;9.182;2022-11-12T18:01:14;9.80;99.90
19680;DHT22;9989;48.962;9.182;2022-11-12T18:03:43;9.70;99.90
19680;DHT22;9989;48.962;9.182;2022-11-12T18:06:14;9.70;99.90
19680;DHT22;9989;48.962;9.182;2022-11-12T18:08:41;9.60;99.90
19680;DHT22;9989;48.962;9.182;2022-11-12T18:11:07;9.50;99.90
19680;DHT22;9989;48.962;9.182;2022-11-12T18:13:33;9.50;99.90